Time;durP1;ratioP1;P1;durP2;ratioP2;P2;SDS_P1;SDS_P2;PMS_P1;PMS_P2;Temp;Humidity;BMP_temperature;BMP_pressure;BME280_temperature;BME280_humidity;BME280_pressure;Samples;Min_cycle;Max_cycle;Signal;HPM_P1;HPM_P2
2024/01/27 00:01:13;;;;;;;9.25;3.17;;;;;;;;;;5028804;28;20033;-82
2024/01/27 00:03:38;;;;;;;11.45;2.97;;;;;;;;;;5028243;28;20546;-82
2024/01/27 00:06:04;;;;;;;11.07;3.05;;;;;;;;;;5028201;28;20048;-81
2024/01/27 00:08:29;;;;;;;11.68;2.95;;;;;;;;;;5023967;28;20071;-82
2024/01/27 00:10:55;;;;;;;8.82;2.78;;;;;;;;;;5022824;28;20026;-81
2024/01/27 00:13:20;;;;;;;11.60;3.25;;;;;;;;;;5024832;28;20029;-81
2024/01/27 00:15:46;;;;;;;10.23;3.20;;;;;;;;;;5031772;28;20125;-82
2024/01/27 00:18:11;;;;;;;8.43;2.50;;;;;;;;;;5027703;28;20025;-80
2024/01/27 00:20:37;;;;;;;10.15;2.95;;;;;;;;;;5027643;28;20050;-81
2024/01/27 00:23:03;;;;;;;10.73;2.40;;;;;;;;;;5025859;28;20040;-82
2024/01/27 00:25:28;;;;;;;7.47;2.50;;;;;;;;;;5025137;28;20029;-82
2024/01/27 00:27:54;;;;;;;11.15;2.90;;;;;;;;;;5023448;28;20032;-82
2024/01/27 00:30:19;;;;;;;7.93;2.72;;;;;;;;;;5023800;28;20034;-81
2024/01/27 00:32:45;;;;;;;12.82;3.08;;;;;;;;;;5022236;28;20041;-81
2024/01/27 00:35:14;;;;;;;10.98;2.78;;;;;;;;;;5025462;28;20033;-82
2024/01/27 00:37:40;;;;;;;10.18;3.05;;;;;;;;;;5038934;28;20140;-81
2024/01/27 00:40:10;;;;;;;9.13;2.45;;;;;;;;;;5021032;28;20112;-82
2024/01/27 00:42:36;;;;;;;8.57;2.67;;;;;;;;;;5021093;28;20075;-80
2024/01/27 00:45:04;;;;;;;8.20;2.60;;;;;;;;;;5021684;28;20034;-82
2024/01/27 00:47:29;;;;;;;10.38;2.92;;;;;;;;;;5018983;28;20021;-80
2024/01/27 00:49:54;;;;;;;11.38;2.70;;;;;;;;;;5020865;28;20505;-80
2024/01/27 00:52:20;;;;;;;10.30;2.72;;;;;;;;;;5022355;28;20095;-80
2024/01/27 00:54:45;;;;;;;13.55;3.63;;;;;;;;;;5021359;28;20037;-80
2024/01/27 00:57:11;;;;;;;9.80;3.10;;;;;;;;;;5022038;28;20025;-80
2024/01/27 00:59:37;;;;;;;10.77;2.70;;;;;;;;;;5024972;28;20030;-80
2024/01/27 01:02:03;;;;;;;9.05;2.60;;;;;;;;;;5026106;28;20045;-80
2024/01/27 01:04:28;;;;;;;9.05;2.83;;;;;;;;;;5025118;28;20025;-80
2024/01/27 01:06:55;;;;;;;7.95;2.78;;;;;;;;;;5027888;28;20095;-80
2024/01/27 01:09:21;;;;;;;10.38;3.00;;;;;;;;;;5020544;28;20076;-80
2024/01/27 01:11:47;;;;;;;9.63;2.90;;;;;;;;;;5028501;28;20053;-80
2024/01/27 01:14:13;;;;;;;13.27;3.28;;;;;;;;;;5022774;28;20041;-80
2024/01/27 01:16:39;;;;;;;10.60;3.25;;;;;;;;;;5018292;28;20021;-79
2024/01/27 01:19:05;;;;;;;13.63;3.28;;;;;;;;;;5020150;28;20080;-80
2024/01/27 01:21:31;;;;;;;11.38;2.65;;;;;;;;;;5015524;28;20029;-79
2024/01/27 01:23:56;;;;;;;11.07;3.00;;;;;;;;;;5023946;28;20025;-79
2024/01/27 01:26:22;;;;;;;8.77;2.92;;;;;;;;;;5027050;28;20492;-81
2024/01/27 01:28:47;;;;;;;9.77;3.00;;;;;;;;;;5035579;28;20033;-80
2024/01/27 01:31:12;;;;;;;10.43;3.30;;;;;;;;;;5025662;28;20030;-79
2024/01/27 01:33:38;;;;;;;8.32;2.75;;;;;;;;;;5026549;28;20434;-80
2024/01/27 01:36:03;;;;;;;10.48;3.55;;;;;;;;;;5024909;28;20029;-79
2024/01/27 01:38:29;;;;;;;10.20;3.40;;;;;;;;;;5028653;28;20069;-79
2024/01/27 01:40:54;;;;;;;14.50;3.13;;;;;;;;;;5029333;28;20037;-80
2024/01/27 01:43:19;;;;;;;13.30;3.55;;;;;;;;;;5030850;28;20034;-79
2024/01/27 01:45:45;;;;;;;12.95;3.35;;;;;;;;;;5024136;28;20022;-79
2024/01/27 01:48:10;;;;;;;12.95;3.55;;;;;;;;;;5025681;28;20704;-80
2024/01/27 01:50:36;;;;;;;9.50;3.25;;;;;;;;;;5022768;28;20104;-79
2024/01/27 01:53:02;;;;;;;7.93;2.95;;;;;;;;;;5034792;28;20036;-79
2024/01/27 01:55:27;;;;;;;10.55;3.17;;;;;;;;;;5027007;28;20042;-79
2024/01/27 01:57:53;;;;;;;10.32;3.38;;;;;;;;;;5023227;28;20064;-82
2024/01/27 02:00:19;;;;;;;13.55;3.63;;;;;;;;;;5023277;28;20036;-79
2024/01/27 02:02:45;;;;;;;11.88;3.67;;;;;;;;;;5024470;28;20602;-79
2024/01/27 02:05:12;;;;;;;9.35;3.30;;;;;;;;;;5027153;28;20049;-79
2024/01/27 02:07:37;;;;;;;10.90;3.70;;;;;;;;;;5022836;28;20078;-79
2024/01/27 02:10:03;;;;;;;8.30;3.00;;;;;;;;;;5023734;28;20025;-80
2024/01/27 02:12:29;;;;;;;10.02;3.30;;;;;;;;;;5023453;28;20450;-79
2024/01/27 02:14:54;;;;;;;9.32;3.22;;;;;;;;;;5023725;28;20119;-79
2024/01/27 02:17:20;;;;;;;10.77;3.13;;;;;;;;;;5021009;28;20496;-80
2024/01/27 02:19:45;;;;;;;11.20;3.95;;;;;;;;;;5024281;28;20452;-80
2024/01/27 02:22:10;;;;;;;13.18;3.83;;;;;;;;;;5020609;28;20041;-80
2024/01/27 02:24:37;;;;;;;13.25;3.67;;;;;;;;;;5020670;28;20059;-80
2024/01/27 02:27:03;;;;;;;12.48;4.47;;;;;;;;;;5034934;28;20404;-80
2024/01/27 02:29:28;;;;;;;11.65;3.97;;;;;;;;;;5020996;28;20037;-80
2024/01/27 02:31:54;;;;;;;8.10;3.33;;;;;;;;;;5022230;28;20499;-80
2024/01/27 02:34:20;;;;;;;8.43;3.83;;;;;;;;;;5019991;28;20566;-80
2024/01/27 02:36:45;;;;;;;12.40;4.57;;;;;;;;;;5019074;28;20539;-80
2024/01/27 02:39:11;;;;;;;14.52;4.82;;;;;;;;;;5016150;28;20030;-79
2024/01/27 02:41:38;;;;;;;15.15;4.80;;;;;;;;;;5023475;28;20496;-80
2024/01/27 02:44:05;;;;;;;12.25;4.30;;;;;;;;;;5023573;28;20364;-80
2024/01/27 02:46:30;;;;;;;10.45;4.53;;;;;;;;;;5046003;28;20078;-80
2024/01/27 02:48:56;;;;;;;12.60;4.57;;;;;;;;;;5020488;28;20037;-80
2024/01/27 02:51:21;;;;;;;11.20;5.03;;;;;;;;;;5024277;28;20059;-80
2024/01/27 02:53:47;;;;;;;10.57;4.13;;;;;;;;;;5021211;28;20521;-80
2024/01/27 02:56:12;;;;;;;13.32;5.10;;;;;;;;;;5017673;28;20045;-80
2024/01/27 02:58:37;;;;;;;11.32;4.85;;;;;;;;;;5017679;28;20494;-80
2024/01/27 03:01:03;;;;;;;15.88;4.93;;;;;;;;;;5022391;28;20036;-80
2024/01/27 03:03:30;;;;;;;10.25;5.38;;;;;;;;;;5021144;28;20049;-80
2024/01/27 03:05:55;;;;;;;13.90;5.10;;;;;;;;;;5018636;28;20560;-80
2024/01/27 03:08:21;;;;;;;12.82;5.18;;;;;;;;;;5022457;28;20179;-80
2024/01/27 03:10:46;;;;;;;11.25;5.03;;;;;;;;;;5025679;28;20091;-80
2024/01/27 03:13:12;;;;;;;13.40;5.88;;;;;;;;;;5019387;28;20156;-80
2024/01/27 03:15:37;;;;;;;14.50;5.10;;;;;;;;;;5018694;28;20022;-80
2024/01/27 03:18:04;;;;;;;11.43;4.95;;;;;;;;;;5018424;28;20040;-80
2024/01/27 03:20:31;;;;;;;14.05;5.25;;;;;;;;;;5023462;28;20022;-80
2024/01/27 03:22:56;;;;;;;12.07;4.88;;;;;;;;;;5020790;28;20105;-80
2024/01/27 03:25:22;;;;;;;14.05;5.30;;;;;;;;;;5019864;28;20116;-80
2024/01/27 03:27:48;;;;;;;14.10;5.15;;;;;;;;;;5020485;28;20038;-79
2024/01/27 03:30:13;;;;;;;10.45;5.40;;;;;;;;;;5020874;28;20109;-80
2024/01/27 03:32:38;;;;;;;15.20;5.32;;;;;;;;;;5026692;28;20033;-80
2024/01/27 03:35:04;;;;;;;12.98;5.18;;;;;;;;;;5025119;28;20029;-80
2024/01/27 03:37:30;;;;;;;14.07;5.55;;;;;;;;;;5020145;28;20034;-80
2024/01/27 03:39:55;;;;;;;14.85;5.45;;;;;;;;;;5038702;28;20033;-80
2024/01/27 03:42:21;;;;;;;16.02;6.05;;;;;;;;;;5018480;28;20037;-80
2024/01/27 03:44:46;;;;;;;11.73;5.22;;;;;;;;;;5023547;28;20117;-80
2024/01/27 03:47:13;;;;;;;15.57;5.82;;;;;;;;;;5022034;28;20111;-80
2024/01/27 03:49:38;;;;;;;11.80;5.50;;;;;;;;;;5035417;28;20181;-80
2024/01/27 03:52:04;;;;;;;14.63;5.68;;;;;;;;;;5023364;28;20426;-80
2024/01/27 03:54:30;;;;;;;12.10;5.00;;;;;;;;;;5022776;28;20029;-80
2024/01/27 03:56:55;;;;;;;13.40;5.65;;;;;;;;;;5021502;28;20030;-80
2024/01/27 03:59:20;;;;;;;11.23;5.35;;;;;;;;;;5022363;28;20487;-80
2024/01/27 04:01:47;;;;;;;14.38;5.32;;;;;;;;;;5020797;28;20541;-80
2024/01/27 04:04:12;;;;;;;13.93;6.05;;;;;;;;;;5037869;28;20029;-80
2024/01/27 04:06:39;;;;;;;14.18;6.25;;;;;;;;;;5021785;28;20022;-80
2024/01/27 04:09:08;;;;;;;13.02;6.35;;;;;;;;;;5020499;28;20045;-80
2024/01/27 04:11:34;;;;;;;11.77;5.80;;;;;;;;;;5018392;28;20056;-80
2024/01/27 04:14:00;;;;;;;14.63;5.57;;;;;;;;;;5019338;28;20051;-80
2024/01/27 04:16:25;;;;;;;13.57;6.03;;;;;;;;;;5022151;28;20112;-80
2024/01/27 04:18:50;;;;;;;13.10;5.63;;;;;;;;;;5016796;28;20484;-80
2024/01/27 04:21:16;;;;;;;15.27;5.80;;;;;;;;;;5022065;28;20022;-80
2024/01/27 04:23:41;;;;;;;15.05;5.90;;;;;;;;;;5024324;28;20429;-80
2024/01/27 04:26:09;;;;;;;13.85;6.03;;;;;;;;;;5022119;28;20036;-80
2024/01/27 04:28:34;;;;;;;14.15;6.28;;;;;;;;;;5027053;28;20036;-80
2024/01/27 04:31:00;;;;;;;10.18;5.63;;;;;;;;;;5024890;28;20025;-80
2024/01/27 04:33:25;;;;;;;14.25;5.78;;;;;;;;;;5022457;28;20099;-80
2024/01/27 04:35:51;;;;;;;13.60;6.13;;;;;;;;;;5021341;28;20052;-80
2024/01/27 04:38:17;;;;;;;14.90;7.03;;;;;;;;;;5021826;28;20040;-80
2024/01/27 04:40:42;;;;;;;13.05;6.35;;;;;;;;;;5026058;28;20021;-80
2024/01/27 04:43:07;;;;;;;16.15;6.20;;;;;;;;;;5020808;28;20029;-80
2024/01/27 04:45:33;;;;;;;13.23;6.22;;;;;;;;;;5019613;28;20033;-80
2024/01/27 04:48:00;;;;;;;13.85;6.68;;;;;;;;;;5023822;28;20029;-80
2024/01/27 04:50:26;;;;;;;12.30;6.32;;;;;;;;;;5026519;28;20108;-80
2024/01/27 04:52:51;;;;;;;14.93;6.40;;;;;;;;;;5024380;28;20519;-80
2024/01/27 04:55:17;;;;;;;15.88;6.45;;;;;;;;;;5024632;28;20072;-80
2024/01/27 04:57:43;;;;;;;13.60;6.70;;;;;;;;;;5023692;28;20029;-80
2024/01/27 05:00:12;;;;;;;13.20;6.50;;;;;;;;;;5026849;28;20553;-80
2024/01/27 05:02:40;;;;;;;14.38;6.35;;;;;;;;;;5024837;28;20040;-80
2024/01/27 05:05:06;;;;;;;15.23;6.90;;;;;;;;;;5020272;28;20025;-80
2024/01/27 05:07:32;;;;;;;14.48;6.97;;;;;;;;;;5022278;28;20031;-80
2024/01/27 05:09:57;;;;;;;14.98;6.57;;;;;;;;;;5027500;28;20034;-80
2024/01/27 05:12:23;;;;;;;14.00;6.72;;;;;;;;;;5024483;28;20026;-80
2024/01/27 05:14:48;;;;;;;13.82;7.28;;;;;;;;;;5023024;28;20419;-80
2024/01/27 05:17:13;;;;;;;16.08;6.97;;;;;;;;;;5026200;28;20489;-80
2024/01/27 05:19:39;;;;;;;14.18;6.93;;;;;;;;;;5022978;28;20052;-80
2024/01/27 05:22:04;;;;;;;18.10;7.05;;;;;;;;;;5020046;28;20475;-80
2024/01/27 05:24:30;;;;;;;13.95;7.03;;;;;;;;;;5019218;28;20484;-80
2024/01/27 05:26:56;;;;;;;12.90;6.57;;;;;;;;;;5019855;28;20068;-80
2024/01/27 05:29:21;;;;;;;17.35;7.57;;;;;;;;;;5025428;28;20029;-80
2024/01/27 05:31:47;;;;;;;14.77;7.03;;;;;;;;;;5021296;28;20024;-80
2024/01/27 05:34:12;;;;;;;13.25;6.78;;;;;;;;;;5026079;28;20038;-80
2024/01/27 05:36:39;;;;;;;14.13;6.90;;;;;;;;;;5028629;28;20030;-80
2024/01/27 05:39:05;;;;;;;15.93;6.95;;;;;;;;;;5015841;28;20044;-80
2024/01/27 05:41:30;;;;;;;13.45;6.78;;;;;;;;;;5023717;28;20021;-80
2024/01/27 05:43:57;;;;;;;13.07;6.68;;;;;;;;;;5021462;28;20029;-80
2024/01/27 05:46:24;;;;;;;13.70;6.65;;;;;;;;;;5026629;28;20026;-80
2024/01/27 05:48:50;;;;;;;13.60;6.60;;;;;;;;;;5020508;28;20026;-80
2024/01/27 05:51:16;;;;;;;16.05;7.03;;;;;;;;;;5022537;28;20463;-80
2024/01/27 05:53:41;;;;;;;14.88;7.25;;;;;;;;;;5021604;28;20116;-80
2024/01/27 05:56:07;;;;;;;14.93;7.18;;;;;;;;;;5024182;28;20604;-80
2024/01/27 05:58:32;;;;;;;15.43;6.63;;;;;;;;;;5025697;28;20115;-80
2024/01/27 06:00:57;;;;;;;13.73;6.63;;;;;;;;;;5027790;28;20450;-80
2024/01/27 06:03:23;;;;;;;15.05;6.97;;;;;;;;;;5021339;28;20076;-80
2024/01/27 06:05:48;;;;;;;19.27;6.68;;;;;;;;;;5018286;28;20022;-81
2024/01/27 06:08:14;;;;;;;16.40;7.25;;;;;;;;;;5021348;28;20021;-80
2024/01/27 06:10:39;;;;;;;18.13;7.05;;;;;;;;;;5019141;28;20030;-79
2024/01/27 06:13:04;;;;;;;16.85;7.65;;;;;;;;;;5019248;28;20041;-79
2024/01/27 06:15:30;;;;;;;15.27;7.00;;;;;;;;;;5018972;28;20033;-79
2024/01/27 06:17:57;;;;;;;14.93;6.40;;;;;;;;;;5022314;28;20483;-79
2024/01/27 06:20:22;;;;;;;15.63;6.90;;;;;;;;;;5016567;28;20029;-79
2024/01/27 06:22:48;;;;;;;12.65;7.18;;;;;;;;;;5022658;28;20365;-80
2024/01/27 06:25:14;;;;;;;16.27;7.80;;;;;;;;;;5021237;28;20104;-82
2024/01/27 06:27:41;;;;;;;18.00;7.05;;;;;;;;;;5019252;28;20048;-82
2024/01/27 06:30:07;;;;;;;14.07;7.10;;;;;;;;;;5018966;28;20025;-81
2024/01/27 06:32:33;;;;;;;12.82;7.03;;;;;;;;;;5021200;28;20057;-80
2024/01/27 06:34:58;;;;;;;15.20;7.07;;;;;;;;;;5011477;28;20071;-80
2024/01/27 06:37:25;;;;;;;19.20;7.35;;;;;;;;;;5023968;28;20037;-80
2024/01/27 06:39:50;;;;;;;16.25;7.00;;;;;;;;;;5010577;28;20060;-80
2024/01/27 06:42:15;;;;;;;13.27;6.85;;;;;;;;;;5020917;28;20083;-80
2024/01/27 06:44:42;;;;;;;17.67;8.02;;;;;;;;;;5019531;28;20030;-81
2024/01/27 06:47:08;;;;;;;22.50;8.50;;;;;;;;;;5017022;28;20029;-80
2024/01/27 06:49:33;;;;;;;16.38;7.43;;;;;;;;;;5016619;28;20124;-80
2024/01/27 06:52:00;;;;;;;19.38;8.18;;;;;;;;;;5030842;28;20065;-81
2024/01/27 06:54:26;;;;;;;16.02;6.97;;;;;;;;;;5014213;28;20048;-81
2024/01/27 06:56:51;;;;;;;14.70;7.50;;;;;;;;;;5020113;28;20025;-80
2024/01/27 06:59:16;;;;;;;17.98;7.70;;;;;;;;;;5022159;28;20054;-80
2024/01/27 07:01:48;;;;;;;16.98;7.70;;;;;;;;;;5027648;28;20029;-80
2024/01/27 07:04:13;;;;;;;11.45;6.68;;;;;;;;;;5020053;28;20029;-80
2024/01/27 07:06:39;;;;;;;13.77;6.45;;;;;;;;;;5026740;28;20043;-80
2024/01/27 07:09:04;;;;;;;13.98;8.07;;;;;;;;;;5021452;28;20053;-80
2024/01/27 07:11:30;;;;;;;13.43;7.88;;;;;;;;;;5023405;28;20026;-80
2024/01/27 07:13:55;;;;;;;18.40;7.57;;;;;;;;;;5020362;28;20495;-80
2024/01/27 07:16:21;;;;;;;14.98;7.85;;;;;;;;;;5019898;28;20410;-80
2024/01/27 07:18:46;;;;;;;14.20;7.57;;;;;;;;;;5018592;28;20030;-80
2024/01/27 07:21:19;;;;;;;15.75;8.05;;;;;;;;;;5021144;28;20026;-80
2024/01/27 07:23:44;;;;;;;16.08;7.78;;;;;;;;;;5017034;28;20480;-80
2024/01/27 07:26:10;;;;;;;13.30;7.30;;;;;;;;;;5020594;28;20029;-80
2024/01/27 07:28:36;;;;;;;15.38;7.13;;;;;;;;;;5023264;28;20041;-80
2024/01/27 07:31:02;;;;;;;13.82;7.05;;;;;;;;;;5024910;28;20033;-80
2024/01/27 07:33:27;;;;;;;16.98;7.78;;;;;;;;;;5018733;28;20030;-80
2024/01/27 07:35:52;;;;;;;13.73;7.53;;;;;;;;;;5022991;28;20029;-80
2024/01/27 07:38:18;;;;;;;15.32;7.65;;;;;;;;;;5023890;28;20064;-80
2024/01/27 07:40:43;;;;;;;17.25;7.50;;;;;;;;;;5017297;28;20068;-80
2024/01/27 07:43:09;;;;;;;13.13;7.47;;;;;;;;;;5023601;28;20034;-80
2024/01/27 07:45:34;;;;;;;16.58;7.63;;;;;;;;;;5022335;28;20026;-80
2024/01/27 07:48:00;;;;;;;15.20;7.40;;;;;;;;;;5022835;28;20024;-80
2024/01/27 07:50:26;;;;;;;15.27;7.63;;;;;;;;;;5024168;28;20030;-81
2024/01/27 07:52:51;;;;;;;12.57;7.28;;;;;;;;;;5017331;28;20037;-81
2024/01/27 07:55:17;;;;;;;15.25;8.25;;;;;;;;;;5022775;28;20061;-82
2024/01/27 07:57:42;;;;;;;16.15;7.90;;;;;;;;;;5011040;28;21843;-80
2024/01/27 08:00:08;;;;;;;16.48;7.78;;;;;;;;;;5019693;28;20033;-80
2024/01/27 08:02:34;;;;;;;13.55;8.02;;;;;;;;;;5018647;28;20442;-80
2024/01/27 08:04:59;;;;;;;14.10;8.05;;;;;;;;;;5022503;28;20033;-81
2024/01/27 08:07:25;;;;;;;16.58;8.20;;;;;;;;;;5022980;28;20536;-81
2024/01/27 08:09:50;;;;;;;14.43;7.95;;;;;;;;;;5023462;28;20034;-81
2024/01/27 08:12:15;;;;;;;14.88;7.80;;;;;;;;;;5028868;28;20503;-80
2024/01/27 08:14:41;;;;;;;15.95;7.68;;;;;;;;;;5027181;28;20033;-80
2024/01/27 08:17:06;;;;;;;11.93;7.78;;;;;;;;;;5023574;28;20034;-80
2024/01/27 08:19:32;;;;;;;16.70;8.18;;;;;;;;;;5031991;28;20073;-81
2024/01/27 08:21:57;;;;;;;15.55;8.48;;;;;;;;;;5023172;28;20392;-81
2024/01/27 08:24:24;;;;;;;17.50;8.10;;;;;;;;;;5033246;28;20041;-81
2024/01/27 08:26:50;;;;;;;22.88;8.52;;;;;;;;;;5033109;28;20112;-80
2024/01/27 08:29:15;;;;;;;17.67;8.70;;;;;;;;;;5029537;28;20500;-80
2024/01/27 08:31:41;;;;;;;16.85;8.10;;;;;;;;;;5036368;28;20048;-80
2024/01/27 08:34:06;;;;;;;19.75;8.02;;;;;;;;;;5033769;28;20022;-81
2024/01/27 08:36:33;;;;;;;18.38;8.18;;;;;;;;;;5035021;28;20031;-81
2024/01/27 08:38:59;;;;;;;14.30;8.40;;;;;;;;;;5027675;28;20483;-81
2024/01/27 08:41:26;;;;;;;15.90;8.70;;;;;;;;;;5037123;28;20120;-81
2024/01/27 08:43:51;;;;;;;19.33;9.15;;;;;;;;;;5028254;28;20029;-81
2024/01/27 08:46:19;;;;;;;12.98;8.02;;;;;;;;;;5036730;28;20033;-81
2024/01/27 08:48:45;;;;;;;18.30;8.00;;;;;;;;;;5031681;28;20243;-81
2024/01/27 08:51:12;;;;;;;17.30;8.75;;;;;;;;;;5020629;28;20476;-81
2024/01/27 08:53:38;;;;;;;14.32;7.93;;;;;;;;;;5028034;28;20033;-81
2024/01/27 08:56:04;;;;;;;14.35;8.38;;;;;;;;;;5034815;28;20033;-81
2024/01/27 08:58:30;;;;;;;19.85;8.57;;;;;;;;;;5030768;28;20086;-81
2024/01/27 09:00:55;;;;;;;14.18;7.82;;;;;;;;;;5028577;28;20463;-82
2024/01/27 09:03:21;;;;;;;19.48;9.18;;;;;;;;;;5025539;28;20036;-79
2024/01/27 09:05:47;;;;;;;16.90;8.48;;;;;;;;;;5026914;28;20026;-81
2024/01/27 09:08:12;;;;;;;17.52;8.38;;;;;;;;;;5033886;28;20025;-81
2024/01/27 09:10:37;;;;;;;16.77;9.10;;;;;;;;;;5034505;28;20021;-81
2024/01/27 09:13:04;;;;;;;16.58;8.70;;;;;;;;;;5031544;28;20057;-80
2024/01/27 09:15:30;;;;;;;15.45;8.65;;;;;;;;;;5021372;28;20029;-81
2024/01/27 09:17:55;;;;;;;18.42;8.43;;;;;;;;;;5008386;28;20033;-81
2024/01/27 09:20:20;;;;;;;15.73;8.80;;;;;;;;;;5013918;28;20070;-81
2024/01/27 09:22:47;;;;;;;16.30;8.52;;;;;;;;;;5015663;28;20038;-81
2024/01/27 09:25:13;;;;;;;16.08;9.07;;;;;;;;;;5021819;28;20415;-81
2024/01/27 09:27:39;;;;;;;17.55;9.80;;;;;;;;;;5018268;28;20034;-81
2024/01/27 09:30:05;;;;;;;21.23;9.80;;;;;;;;;;5030840;28;20036;-81
2024/01/27 09:32:31;;;;;;;16.83;9.45;;;;;;;;;;5022939;28;20029;-81
2024/01/27 09:34:56;;;;;;;17.70;8.90;;;;;;;;;;5019616;28;20033;-81
2024/01/27 09:37:22;;;;;;;19.33;9.43;;;;;;;;;;5025948;28;20029;-81
2024/01/27 09:39:47;;;;;;;17.20;8.77;;;;;;;;;;5024925;28;20021;-81
2024/01/27 09:42:16;;;;;;;17.15;9.43;;;;;;;;;;5030225;28;20039;-81
2024/01/27 09:44:47;;;;;;;20.80;9.15;;;;;;;;;;5026860;28;20021;-81
2024/01/27 09:47:13;;;;;;;18.95;9.43;;;;;;;;;;5016948;28;20375;-81
2024/01/27 09:49:42;;;;;;;14.25;8.70;;;;;;;;;;5020660;28;20033;-80
2024/01/27 09:52:08;;;;;;;18.27;8.80;;;;;;;;;;5018527;28;20036;-80
2024/01/27 09:54:34;;;;;;;13.98;8.30;;;;;;;;;;5027353;28;20148;-80
2024/01/27 09:57:00;;;;;;;15.50;7.72;;;;;;;;;;5027063;28;20053;-80
2024/01/27 09:59:26;;;;;;;17.27;8.15;;;;;;;;;;5021169;28;20068;-80
2024/01/27 10:01:52;;;;;;;17.52;8.98;;;;;;;;;;5022941;28;20444;-80
2024/01/27 10:04:22;;;;;;;18.13;8.57;;;;;;;;;;5021631;28;20037;-80
2024/01/27 10:06:50;;;;;;;18.15;8.82;;;;;;;;;;5021132;28;20487;-80
2024/01/27 10:09:16;;;;;;;15.35;8.30;;;;;;;;;;5021548;28;20268;-79
2024/01/27 10:11:45;;;;;;;17.75;8.75;;;;;;;;;;5018594;28;20034;-80
2024/01/27 10:14:11;;;;;;;14.57;7.57;;;;;;;;;;5037254;28;20033;-80
2024/01/27 10:16:44;;;;;;;17.13;8.15;;;;;;;;;;5018817;28;20419;-80
2024/01/27 10:19:20;;;;;;;20.25;8.57;;;;;;;;;;5026383;28;20299;-79
2024/01/27 10:21:46;;;;;;;13.75;6.88;;;;;;;;;;5031263;28;20068;-80
2024/01/27 10:24:12;;;;;;;15.27;7.32;;;;;;;;;;5035033;28;20049;-80
2024/01/27 10:26:37;;;;;;;16.50;7.72;;;;;;;;;;5022242;28;20059;-80
2024/01/27 10:29:03;;;;;;;16.02;7.32;;;;;;;;;;5010178;28;20493;-80
2024/01/27 10:31:34;;;;;;;15.73;7.65;;;;;;;;;;5014721;28;20033;-80
2024/01/27 10:34:01;;;;;;;15.88;7.70;;;;;;;;;;5016182;28;20030;-80
2024/01/27 10:36:27;;;;;;;16.73;7.45;;;;;;;;;;5008423;28;20415;-80
2024/01/27 10:38:52;;;;;;;18.55;7.80;;;;;;;;;;5008310;28;20167;-79
2024/01/27 10:41:29;;;;;;;17.17;7.53;;;;;;;;;;4996921;28;20041;-80
2024/01/27 10:43:57;;;;;;;16.63;7.13;;;;;;;;;;5009765;28;20064;-79
2024/01/27 10:46:23;;;;;;;14.55;7.38;;;;;;;;;;5023502;28;20477;-80
2024/01/27 10:48:52;;;;;;;14.43;6.72;;;;;;;;;;5011390;28;20180;-79
2024/01/27 10:51:45;;;;;;;18.50;6.82;;;;;;;;;;5010351;28;20128;-79
2024/01/27 10:54:14;;;;;;;14.37;7.00;;;;;;;;;;5007806;28;20053;-79
2024/01/27 10:56:43;;;;;;;15.50;7.28;;;;;;;;;;5008500;28;20133;-81
2024/01/27 10:59:10;;;;;;;17.60;7.55;;;;;;;;;;5008161;28;20224;-80
2024/01/27 11:01:38;;;;;;;20.38;8.43;;;;;;;;;;5010141;28;20033;-80
2024/01/27 11:04:06;;;;;;;15.20;7.00;;;;;;;;;;5008749;28;20030;-80
2024/01/27 11:06:32;;;;;;;14.48;6.93;;;;;;;;;;5004956;28;20017;-80
2024/01/27 11:08:59;;;;;;;12.77;6.55;;;;;;;;;;5014918;28;20107;-80
2024/01/27 11:11:25;;;;;;;15.60;7.03;;;;;;;;;;5016052;28;20040;-80
2024/01/27 11:13:51;;;;;;;17.05;7.20;;;;;;;;;;5018043;28;20022;-79
2024/01/27 11:16:17;;;;;;;13.65;6.43;;;;;;;;;;5011098;28;20037;-80
2024/01/27 11:18:43;;;;;;;9.73;4.68;;;;;;;;;;5019381;28;20506;-82
2024/01/27 11:21:14;;;;;;;13.68;5.30;;;;;;;;;;5014021;28;20022;-79
2024/01/27 11:23:44;;;;;;;14.15;5.18;;;;;;;;;;5021197;28;20022;-79
2024/01/27 11:26:12;;;;;;;14.25;5.43;;;;;;;;;;5015487;28;20029;-79
2024/01/27 11:28:38;;;;;;;9.45;5.07;;;;;;;;;;5018446;28;20057;-79
2024/01/27 11:31:08;;;;;;;11.82;4.93;;;;;;;;;;5019078;28;20118;-79
2024/01/27 11:33:39;;;;;;;13.43;5.05;;;;;;;;;;5015151;28;20179;-79
2024/01/27 11:36:05;;;;;;;13.15;5.35;;;;;;;;;;5016565;28;20029;-79
2024/01/27 11:38:32;;;;;;;12.48;5.47;;;;;;;;;;5014216;28;20041;-79
2024/01/27 11:41:00;;;;;;;16.15;5.63;;;;;;;;;;5020508;28;20030;-79
2024/01/27 11:43:25;;;;;;;16.70;5.60;;;;;;;;;;5023223;28;20033;-79
2024/01/27 11:45:58;;;;;;;14.43;4.85;;;;;;;;;;5022342;28;20033;-79
2024/01/27 11:48:23;;;;;;;12.60;5.27;;;;;;;;;;5020086;28;20040;-80
2024/01/27 11:50:49;;;;;;;11.18;5.05;;;;;;;;;;5009970;28;20029;-79
2024/01/27 11:53:14;;;;;;;15.88;5.13;;;;;;;;;;5001268;28;20040;-81
2024/01/27 11:55:39;;;;;;;14.32;4.93;;;;;;;;;;5014388;28;20029;-80
2024/01/27 11:58:05;;;;;;;10.43;4.78;;;;;;;;;;5006395;28;20352;-79
2024/01/27 12:00:31;;;;;;;18.20;5.10;;;;;;;;;;5009906;28;20091;-79
2024/01/27 12:02:56;;;;;;;11.40;5.18;;;;;;;;;;5010312;28;20120;-79
2024/01/27 12:05:22;;;;;;;17.17;5.30;;;;;;;;;;5014076;28;20186;-79
2024/01/27 12:07:47;;;;;;;14.63;5.00;;;;;;;;;;5006314;28;20488;-79
2024/01/27 12:10:14;;;;;;;14.60;5.32;;;;;;;;;;5020370;28;20090;-79
2024/01/27 12:12:40;;;;;;;16.52;5.28;;;;;;;;;;5006512;28;20551;-79
2024/01/27 12:15:05;;;;;;;9.48;4.15;;;;;;;;;;5007716;28;20083;-79
2024/01/27 12:17:31;;;;;;;15.20;4.93;;;;;;;;;;5009356;28;20030;-79
2024/01/27 12:19:56;;;;;;;11.73;4.45;;;;;;;;;;4994646;28;20041;-79
2024/01/27 12:22:29;;;;;;;13.80;5.65;;;;;;;;;;5013719;28;20735;-79
2024/01/27 12:24:56;;;;;;;11.18;4.57;;;;;;;;;;5007911;28;20041;-79
2024/01/27 12:27:23;;;;;;;11.70;4.40;;;;;;;;;;5003465;28;20029;-81
2024/01/27 12:29:52;;;;;;;14.27;4.60;;;;;;;;;;5010105;28;20025;-79
2024/01/27 12:32:17;;;;;;;14.00;5.25;;;;;;;;;;5006226;28;20528;-81
2024/01/27 12:34:45;;;;;;;11.48;4.32;;;;;;;;;;5005020;28;20489;-79
2024/01/27 12:37:12;;;;;;;12.73;5.05;;;;;;;;;;5019701;28;20052;-79
2024/01/27 12:39:40;;;;;;;12.18;4.30;;;;;;;;;;5004040;28;20037;-79
2024/01/27 12:42:06;;;;;;;17.33;4.90;;;;;;;;;;5009159;28;20104;-80
2024/01/27 12:44:32;;;;;;;14.88;4.93;;;;;;;;;;5004797;28;20029;-79
2024/01/27 12:46:58;;;;;;;11.73;4.45;;;;;;;;;;5018151;28;20014;-79
2024/01/27 12:49:23;;;;;;;14.90;4.47;;;;;;;;;;5025508;28;20036;-78
2024/01/27 12:51:49;;;;;;;15.05;4.50;;;;;;;;;;5018269;28;20034;-79
2024/01/27 12:54:14;;;;;;;13.55;4.82;;;;;;;;;;5000327;28;20496;-79
2024/01/27 12:56:40;;;;;;;14.35;4.10;;;;;;;;;;5011480;28;20086;-78
2024/01/27 12:59:06;;;;;;;14.68;4.90;;;;;;;;;;5011374;28;20034;-78
2024/01/27 13:01:32;;;;;;;12.02;3.55;;;;;;;;;;5019121;28;20044;-78
2024/01/27 13:04:00;;;;;;;13.10;4.03;;;;;;;;;;5001949;28;20083;-78
2024/01/27 13:06:26;;;;;;;9.70;4.07;;;;;;;;;;5022461;28;20050;-78
2024/01/27 13:08:52;;;;;;;9.32;3.78;;;;;;;;;;5022055;28;20547;-78
2024/01/27 13:11:17;;;;;;;13.55;4.40;;;;;;;;;;5018400;28;20548;-78
2024/01/27 13:13:43;;;;;;;12.10;3.85;;;;;;;;;;5016566;28;20056;-78
2024/01/27 13:16:08;;;;;;;10.95;4.18;;;;;;;;;;5013491;28;20041;-78
2024/01/27 13:18:34;;;;;;;14.43;4.03;;;;;;;;;;5016884;28;20037;-79
2024/01/27 13:20:59;;;;;;;13.50;4.03;;;;;;;;;;5012851;28;20495;-78
2024/01/27 13:23:24;;;;;;;11.25;4.10;;;;;;;;;;5015119;28;20426;-78
2024/01/27 13:25:50;;;;;;;12.00;3.92;;;;;;;;;;5015503;28;20044;-78
2024/01/27 13:28:15;;;;;;;11.00;3.97;;;;;;;;;;5022118;28;20091;-78
2024/01/27 13:30:41;;;;;;;14.55;4.07;;;;;;;;;;5025390;28;20506;-79
2024/01/27 13:33:07;;;;;;;14.00;4.78;;;;;;;;;;5036287;28;20044;-78
2024/01/27 13:35:32;;;;;;;10.25;4.18;;;;;;;;;;5015790;28;20030;-78
2024/01/27 13:37:58;;;;;;;12.90;4.55;;;;;;;;;;5014705;28;20301;-78
2024/01/27 13:40:23;;;;;;;16.48;4.85;;;;;;;;;;5010636;28;20040;-78
2024/01/27 13:42:49;;;;;;;11.23;3.83;;;;;;;;;;5015795;28;20030;-78
2024/01/27 13:45:14;;;;;;;16.85;4.78;;;;;;;;;;5019291;28;20112;-80
2024/01/27 13:47:40;;;;;;;14.93;4.32;;;;;;;;;;5021277;28;20036;-80
2024/01/27 13:50:06;;;;;;;15.77;4.28;;;;;;;;;;5014057;28;20704;-80
2024/01/27 13:52:32;;;;;;;13.35;4.28;;;;;;;;;;5016035;28;20025;-80
2024/01/27 13:54:58;;;;;;;11.80;4.20;;;;;;;;;;5031524;28;20399;-80
2024/01/27 13:57:24;;;;;;;14.50;4.05;;;;;;;;;;5029035;28;20041;-80
2024/01/27 13:59:49;;;;;;;14.57;4.55;;;;;;;;;;5033029;28;20442;-80
2024/01/27 14:02:15;;;;;;;15.00;4.55;;;;;;;;;;5013583;28;20056;-80
2024/01/27 14:04:40;;;;;;;13.18;3.88;;;;;;;;;;5016696;28;20085;-79
2024/01/27 14:07:08;;;;;;;11.15;3.67;;;;;;;;;;5014288;28;20026;-80
2024/01/27 14:09:34;;;;;;;19.20;4.38;;;;;;;;;;5006658;28;20487;-80
2024/01/27 14:11:59;;;;;;;10.35;4.00;;;;;;;;;;5023810;28;20040;-80
2024/01/27 14:14:25;;;;;;;17.05;4.95;;;;;;;;;;5025954;28;20018;-80
2024/01/27 14:16:50;;;;;;;11.57;4.25;;;;;;;;;;5017657;28;20047;-80
2024/01/27 14:19:16;;;;;;;16.00;4.30;;;;;;;;;;5023208;28;21037;-80
2024/01/27 14:21:41;;;;;;;12.02;4.38;;;;;;;;;;5024121;28;20100;-80
2024/01/27 14:24:08;;;;;;;10.93;3.70;;;;;;;;;;5022663;28;20338;-80